KAKO/AKO METAR and TAF weather

Enter ICAO airport designator
Station Type Date Time Source
KAKO METAR 2021/05/12 23:53 UTC NOAA

KAKO 122353Z AUTO 09010KT 10SM CLR 14/05 A3020 RMK AO2 RAE05 TSE04 SLP213 P0001 60001 T01390050 10161 20111 56007


Station Type Date Time Source
KAKO Decoded METAR 2021/05/12 23:53 UTC NOAA

COLORADO PLAINS REGIONAL, CO, United States (KAKO) 40-10N 103-13W 1421M
May 12, 2021 - 07:53 PM EDT / 2021.05.12 2353 UTC
Wind: from the E (090 degrees) at 12 MPH (10 KT):0
Visibility: 10 mile(s):0
Sky conditions: clear
Precipitation last hour: 0.01 inches
Temperature: 57.0 F (13.9 C)
Dew Point: 41.0 F (5.0 C)
Relative Humidity: 54%
Pressure (altimeter): 30.2 in. Hg (1022 hPa)
Pressure tendency: 0.02 inches (0.7 hPa) lower than three hours ago
ob: KAKO 122353Z AUTO 09010KT 10SM CLR 14/05 A3020 RMK AO2 RAE05 TSE04 SLP213 P0001 60001 T01390050 10161 20111 56007
cycle: 0

Station Type Date Time Source
KAKO TAF UTC NOAA

Error!

Example: see airport list